Time;durP1;ratioP1;P1;durP2;ratioP2;P2;SDS_P1;SDS_P2;PMS_P1;PMS_P2;Temp;Humidity;BMP_temperature;BMP_pressure;BME280_temperature;BME280_humidity;BME280_pressure;Samples;Min_cycle;Max_cycle;Signal;HPM_P1;HPM_P2
2022/08/06 00:01:49;;;;;;;16.98;11.98;;;;;;;;;;5035034;28;20085;-64
2022/08/06 00:04:15;;;;;;;16.52;11.43;;;;;;;;;;5034758;28;20482;-64
2022/08/06 00:06:41;;;;;;;18.42;11.52;;;;;;;;;;5035329;28;20038;-65
2022/08/06 00:09:07;;;;;;;16.85;11.93;;;;;;;;;;5034390;28;20536;-65
2022/08/06 00:11:33;;;;;;;18.08;11.70;;;;;;;;;;5035073;28;20026;-65
2022/08/06 00:13:59;;;;;;;20.10;12.10;;;;;;;;;;5034749;28;20041;-65
2022/08/06 00:16:25;;;;;;;15.95;11.30;;;;;;;;;;5034693;28;20488;-65
2022/08/06 00:18:51;;;;;;;15.82;11.60;;;;;;;;;;5032686;28;20456;-64
2022/08/06 00:21:17;;;;;;;16.42;11.90;;;;;;;;;;5034525;28;20127;-65
2022/08/06 00:23:44;;;;;;;17.58;12.35;;;;;;;;;;5034448;28;20021;-66
2022/08/06 00:26:10;;;;;;;16.35;11.50;;;;;;;;;;5033134;28;20120;-65
2022/08/06 00:28:36;;;;;;;18.50;12.35;;;;;;;;;;5033620;28;20025;-65
2022/08/06 00:31:03;;;;;;;16.77;11.63;;;;;;;;;;5034389;28;20045;-65
2022/08/06 00:33:29;;;;;;;16.83;12.27;;;;;;;;;;5033137;28;20039;-64
2022/08/06 00:35:55;;;;;;;15.50;11.25;;;;;;;;;;5032867;28;20474;-63
2022/08/06 00:38:21;;;;;;;17.23;11.90;;;;;;;;;;5033694;28;20031;-65
2022/08/06 00:40:48;;;;;;;17.55;12.15;;;;;;;;;;5033053;28;20116;-65
2022/08/06 00:43:14;;;;;;;17.50;11.75;;;;;;;;;;5034204;28;20029;-65
2022/08/06 00:45:40;;;;;;;17.27;11.60;;;;;;;;;;5034480;28;20022;-64
2022/08/06 00:48:06;;;;;;;18.60;12.32;;;;;;;;;;5033080;28;20033;-65
2022/08/06 00:50:32;;;;;;;17.60;11.43;;;;;;;;;;5032888;28;20037;-64
2022/08/06 00:53:03;;;;;;;17.00;12.93;;;;;;;;;;5034141;28;20168;-66
2022/08/06 00:55:29;;;;;;;16.58;11.43;;;;;;;;;;5033933;28;20029;-64
2022/08/06 00:57:55;;;;;;;18.55;12.05;;;;;;;;;;5033039;28;20035;-64
2022/08/06 01:00:21;;;;;;;16.42;11.60;;;;;;;;;;5033906;28;20098;-64
2022/08/06 01:02:47;;;;;;;16.65;11.88;;;;;;;;;;5033969;28;20075;-65
2022/08/06 01:05:13;;;;;;;20.08;12.43;;;;;;;;;;5033670;28;20581;-65
2022/08/06 01:07:39;;;;;;;15.93;11.90;;;;;;;;;;5031770;28;20052;-65
2022/08/06 01:10:05;;;;;;;17.00;11.80;;;;;;;;;;5032283;28;20026;-66
2022/08/06 01:12:31;;;;;;;16.85;12.02;;;;;;;;;;5033922;28;20036;-65
2022/08/06 01:14:58;;;;;;;16.05;11.85;;;;;;;;;;5033468;28;20025;-65
2022/08/06 01:17:23;;;;;;;19.35;12.15;;;;;;;;;;5032891;28;20108;-65
2022/08/06 01:19:53;;;;;;;17.90;12.13;;;;;;;;;;5033447;28;20447;-65
2022/08/06 01:22:42;;;;;;;16.83;12.07;;;;;;;;;;5032186;28;20478;-66
2022/08/06 01:25:08;;;;;;;17.10;11.70;;;;;;;;;;5032818;28;20046;-65
2022/08/06 01:27:37;;;;;;;16.08;11.68;;;;;;;;;;5031492;28;20025;-65
2022/08/06 01:30:07;;;;;;;15.85;11.52;;;;;;;;;;5032107;28;20026;-65
2022/08/06 01:32:40;;;;;;;17.52;12.20;;;;;;;;;;5033346;28;20037;-65
2022/08/06 01:35:08;;;;;;;17.55;12.40;;;;;;;;;;5032978;28;20048;-64
2022/08/06 01:37:37;;;;;;;16.92;11.80;;;;;;;;;;5031097;28;20026;-65
2022/08/06 01:40:06;;;;;;;19.45;11.88;;;;;;;;;;5031965;28;20032;-65
2022/08/06 01:42:33;;;;;;;19.02;12.40;;;;;;;;;;5031953;28;20025;-65
2022/08/06 01:45:01;;;;;;;18.10;13.00;;;;;;;;;;5033048;28;20031;-65
2022/08/06 01:47:28;;;;;;;17.20;11.75;;;;;;;;;;5030958;28;20033;-66
2022/08/06 01:49:56;;;;;;;17.48;12.05;;;;;;;;;;5032921;28;20037;-66
2022/08/06 01:52:24;;;;;;;16.80;12.10;;;;;;;;;;5032932;28;20091;-65
2022/08/06 01:54:51;;;;;;;16.25;12.07;;;;;;;;;;5033013;28;20030;-67
2022/08/06 01:57:19;;;;;;;21.38;12.88;;;;;;;;;;5030978;28;20401;-65
2022/08/06 01:59:47;;;;;;;18.58;12.60;;;;;;;;;;5032179;28;20105;-65
2022/08/06 02:02:15;;;;;;;17.95;12.40;;;;;;;;;;5030822;28;20056;-65
2022/08/06 02:04:43;;;;;;;17.33;12.75;;;;;;;;;;5058603;22;20041;-59
2022/08/06 02:07:10;;;;;;;16.17;12.10;;;;;;;;;;5052469;28;20033;-59
2022/08/06 02:09:37;;;;;;;17.75;12.15;;;;;;;;;;5052601;28;20404;-62
2022/08/06 02:12:03;;;;;;;17.55;12.30;;;;;;;;;;5051524;28;20462;-59
2022/08/06 02:14:31;;;;;;;16.92;12.55;;;;;;;;;;5052341;28;20060;-61
2022/08/06 02:16:58;;;;;;;18.85;12.50;;;;;;;;;;5052045;28;20584;-60
2022/08/06 02:19:26;;;;;;;17.85;12.52;;;;;;;;;;5051695;28;20492;-59
2022/08/06 02:21:53;;;;;;;17.40;12.38;;;;;;;;;;5052369;28;20028;-61
2022/08/06 02:24:20;;;;;;;16.35;12.60;;;;;;;;;;5051006;28;20029;-61
2022/08/06 02:26:46;;;;;;;16.40;12.80;;;;;;;;;;5052428;28;20078;-61
2022/08/06 02:29:15;;;;;;;18.25;13.25;;;;;;;;;;5051370;28;20033;-61
2022/08/06 02:31:43;;;;;;;19.45;12.73;;;;;;;;;;5050923;28;20025;-58
2022/08/06 02:34:09;;;;;;;17.70;12.82;;;;;;;;;;5052399;28;20037;-57
2022/08/06 02:36:38;;;;;;;17.42;12.20;;;;;;;;;;5052196;28;20044;-59
2022/08/06 02:39:07;;;;;;;19.45;12.63;;;;;;;;;;5051466;28;20108;-59
2022/08/06 02:41:40;;;;;;;18.60;12.52;;;;;;;;;;5050933;28;20407;-58
2022/08/06 02:44:14;;;;;;;16.67;12.20;;;;;;;;;;5050770;28;20491;-61
2022/08/06 02:46:44;;;;;;;18.65;12.55;;;;;;;;;;5052103;28;20063;-61
2022/08/06 02:49:12;;;;;;;16.95;12.50;;;;;;;;;;5050068;28;20452;-60
2022/08/06 02:51:43;;;;;;;17.23;12.73;;;;;;;;;;5051980;28;20459;-62
2022/08/06 02:54:20;;;;;;;16.98;12.57;;;;;;;;;;5051932;28;20033;-60
2022/08/06 02:56:47;;;;;;;18.83;12.88;;;;;;;;;;5052146;28;20167;-62
2022/08/06 02:59:20;;;;;;;16.67;12.23;;;;;;;;;;5051091;28;20188;-60
2022/08/06 03:01:50;;;;;;;18.27;12.70;;;;;;;;;;5051608;28;20017;-61
2022/08/06 03:04:17;;;;;;;17.45;12.70;;;;;;;;;;5050151;28;20035;-61
2022/08/06 03:06:45;;;;;;;18.48;13.02;;;;;;;;;;5051597;28;20021;-62
2022/08/06 03:09:11;;;;;;;;;;;;;;;;;;5051009;28;20014;-62
2022/08/06 03:11:40;;;;;;;17.92;12.88;;;;;;;;;;5052971;28;19911;-60
2022/08/06 03:14:07;;;;;;;16.55;12.43;;;;;;;;;;5055751;28;20092;-60
2022/08/06 03:16:35;;;;;;;19.63;13.35;;;;;;;;;;5055517;28;20095;-62
2022/08/06 03:19:01;;;;;;;16.97;12.83;;;;;;;;;;5054794;28;20473;-61
2022/08/06 03:21:28;;;;;;;23.77;13.10;;;;;;;;;;5055673;28;20321;-58
2022/08/06 03:23:55;;;;;;;18.77;13.10;;;;;;;;;;5054457;28;20131;-59
2022/08/06 03:26:21;;;;;;;19.88;13.38;;;;;;;;;;5055403;28;20063;-62
2022/08/06 03:28:47;;;;;;;17.40;12.55;;;;;;;;;;5054672;28;20024;-60
2022/08/06 03:31:13;;;;;;;16.65;12.85;;;;;;;;;;5055825;28;20029;-60
2022/08/06 03:33:39;;;;;;;22.15;13.80;;;;;;;;;;5055653;28;20071;-62
2022/08/06 03:36:06;;;;;;;16.95;13.02;;;;;;;;;;5055266;28;20029;-60
2022/08/06 03:38:34;;;;;;;19.48;13.25;;;;;;;;;;5054854;28;20028;-62
2022/08/06 03:41:01;;;;;;;17.17;13.40;;;;;;;;;;5055502;28;20032;-62
2022/08/06 03:43:27;;;;;;;20.42;14.38;;;;;;;;;;5055468;28;20392;-61
2022/08/06 03:45:56;;;;;;;16.52;12.93;;;;;;;;;;5055137;28;20396;-60
2022/08/06 03:48:25;;;;;;;17.20;13.50;;;;;;;;;;5054459;28;20057;-58
2022/08/06 03:50:52;;;;;;;17.55;13.55;;;;;;;;;;5055156;28;20021;-61
2022/08/06 03:53:23;;;;;;;19.77;13.88;;;;;;;;;;5055254;28;20035;-61
2022/08/06 03:55:50;;;;;;;18.17;13.30;;;;;;;;;;5055258;28;20078;-61
2022/08/06 03:58:16;;;;;;;20.35;13.45;;;;;;;;;;5054364;28;20041;-61
2022/08/06 04:01:03;;;;;;;17.45;13.27;;;;;;;;;;5054921;28;20397;-61
2022/08/06 04:03:29;;;;;;;17.77;13.23;;;;;;;;;;5055205;28;20043;-60
2022/08/06 04:05:56;;;;;;;18.13;13.52;;;;;;;;;;5054826;28;20039;-61
2022/08/06 04:08:23;;;;;;;17.23;13.25;;;;;;;;;;5054247;28;20039;-59
2022/08/06 04:10:50;;;;;;;17.50;12.98;;;;;;;;;;5054997;28;20478;-59
2022/08/06 04:13:19;;;;;;;17.13;12.95;;;;;;;;;;5054934;28;20021;-59
2022/08/06 04:15:45;;;;;;;;;;;;;;;;;;5055131;28;20024;-61
2022/08/06 04:18:13;;;;;;;17.42;13.15;;;;;;;;;;5054070;28;20377;-62
2022/08/06 04:20:41;;;;;;;26.70;14.00;;;;;;;;;;5054611;28;20032;-62
2022/08/06 04:23:08;;;;;;;18.52;13.27;;;;;;;;;;5053880;28;20032;-61
2022/08/06 04:25:45;;;;;;;18.02;14.00;;;;;;;;;;5054905;28;20084;-58
2022/08/06 04:28:11;;;;;;;20.90;13.85;;;;;;;;;;5053869;28;20056;-57
2022/08/06 04:30:38;;;;;;;20.13;13.70;;;;;;;;;;5054674;28;20477;-56
2022/08/06 04:33:05;;;;;;;18.85;13.77;;;;;;;;;;5053246;28;20029;-61
2022/08/06 04:35:31;;;;;;;18.65;14.13;;;;;;;;;;5054452;28;20473;-59
2022/08/06 04:37:59;;;;;;;19.95;13.88;;;;;;;;;;5053900;28;20033;-60
2022/08/06 04:40:25;;;;;;;19.42;14.07;;;;;;;;;;5054330;28;20032;-58
2022/08/06 04:42:51;;;;;;;17.63;13.88;;;;;;;;;;5054336;28;20393;-60
2022/08/06 04:45:17;;;;;;;17.92;13.80;;;;;;;;;;5052780;28;20400;-60
2022/08/06 04:47:44;;;;;;;18.13;13.80;;;;;;;;;;5053602;28;20492;-60
2022/08/06 04:50:10;;;;;;;17.55;13.50;;;;;;;;;;5054138;28;20044;-59
2022/08/06 04:52:37;;;;;;;19.23;13.80;;;;;;;;;;5052885;28;20021;-58
2022/08/06 04:55:03;;;;;;;19.08;13.77;;;;;;;;;;5052711;28;20116;-60
2022/08/06 04:57:29;;;;;;;17.75;14.00;;;;;;;;;;5053309;28;20505;-60
2022/08/06 04:59:55;;;;;;;18.35;14.38;;;;;;;;;;5053974;28;20029;-61
2022/08/06 05:02:21;;;;;;;22.63;14.27;;;;;;;;;;5053961;28;20455;-62
2022/08/06 05:04:55;;;;;;;19.75;15.00;;;;;;;;;;5053896;28;20040;-61
2022/08/06 05:07:27;;;;;;;19.40;13.95;;;;;;;;;;5051757;28;20075;-60
2022/08/06 05:09:53;;;;;;;17.88;14.13;;;;;;;;;;5053514;28;20036;-60
2022/08/06 05:12:24;;;;;;;18.05;14.32;;;;;;;;;;5053682;28;20512;-60
2022/08/06 05:14:53;;;;;;;18.73;14.13;;;;;;;;;;5053748;28;20079;-62
2022/08/06 05:17:21;;;;;;;19.05;13.75;;;;;;;;;;5052956;28;20107;-59
2022/08/06 05:19:52;;;;;;;19.85;14.38;;;;;;;;;;5052316;28;20029;-62
2022/08/06 05:22:19;;;;;;;18.55;13.95;;;;;;;;;;5053504;28;20059;-60
2022/08/06 05:24:47;;;;;;;17.48;13.70;;;;;;;;;;5053405;28;20025;-59
2022/08/06 05:27:14;;;;;;;20.00;13.65;;;;;;;;;;5051362;28;20132;-61
2022/08/06 05:29:41;;;;;;;18.33;13.82;;;;;;;;;;5053412;28;20028;-60
2022/08/06 05:32:07;;;;;;;17.42;13.32;;;;;;;;;;5053278;28;20470;-61
2022/08/06 05:34:33;;;;;;;17.27;13.82;;;;;;;;;;5053192;28;20025;-60
2022/08/06 05:36:59;;;;;;;19.25;14.50;;;;;;;;;;5053190;28;20103;-58
2022/08/06 05:39:25;;;;;;;18.17;13.25;;;;;;;;;;5052356;28;20098;-61
2022/08/06 05:41:51;;;;;;;17.23;13.77;;;;;;;;;;5051838;28;20025;-61
2022/08/06 05:44:17;;;;;;;17.67;14.20;;;;;;;;;;5052745;28;20025;-58
2022/08/06 05:46:51;;;;;;;16.58;13.32;;;;;;;;;;5053050;28;20362;-60
2022/08/06 05:49:22;;;;;;;18.23;13.55;;;;;;;;;;5052126;28;20021;-59
2022/08/06 05:52:01;;;;;;;18.85;14.02;;;;;;;;;;5053182;28;20021;-59
2022/08/06 05:54:41;;;;;;;18.70;13.77;;;;;;;;;;5052623;28;20048;-61
2022/08/06 05:57:12;;;;;;;16.45;13.00;;;;;;;;;;5052411;28;20554;-63
2022/08/06 05:59:41;;;;;;;18.45;13.25;;;;;;;;;;5052567;28;20512;-61
2022/08/06 06:02:08;;;;;;;18.38;13.57;;;;;;;;;;5051556;28;20056;-58
2022/08/06 06:04:34;;;;;;;18.75;13.73;;;;;;;;;;5053208;28;20032;-62
2022/08/06 06:07:01;;;;;;;16.73;13.82;;;;;;;;;;5052566;28;20029;-61
2022/08/06 06:09:27;;;;;;;16.63;12.68;;;;;;;;;;5052182;28;20367;-60
2022/08/06 06:11:54;;;;;;;17.23;13.10;;;;;;;;;;5052528;28;20432;-61
2022/08/06 06:14:29;;;;;;;19.48;13.68;;;;;;;;;;5052183;28;20424;-60
2022/08/06 06:16:59;;;;;;;17.35;13.02;;;;;;;;;;5052301;28;20031;-60
2022/08/06 06:19:49;;;;;;;20.08;13.20;;;;;;;;;;5050454;28;20031;-62
2022/08/06 06:22:21;;;;;;;16.02;12.65;;;;;;;;;;5052317;28;20029;-61
2022/08/06 06:24:51;;;;;;;16.00;12.77;;;;;;;;;;5052210;28;20032;-61
2022/08/06 06:27:19;;;;;;;18.38;13.40;;;;;;;;;;5051826;28;20025;-59
2022/08/06 06:29:51;;;;;;;17.90;13.13;;;;;;;;;;5052775;28;20473;-61
2022/08/06 06:32:38;;;;;;;17.15;12.63;;;;;;;;;;5051028;28;20032;-59
2022/08/06 06:35:10;;;;;;;18.38;13.60;;;;;;;;;;5052046;28;20021;-61
2022/08/06 06:37:39;;;;;;;16.27;12.50;;;;;;;;;;5051994;28;20090;-60
2022/08/06 06:40:24;;;;;;;16.90;13.30;;;;;;;;;;5049456;28;20037;-59
2022/08/06 06:43:13;;;;;;;17.90;12.45;;;;;;;;;;5038569;28;20450;-60
2022/08/06 06:45:42;;;;;;;18.55;12.32;;;;;;;;;;5037960;28;20069;-61
2022/08/06 06:48:08;;;;;;;15.57;12.50;;;;;;;;;;5034066;28;20029;-59
2022/08/06 06:50:35;;;;;;;16.48;12.43;;;;;;;;;;5050811;28;20078;-60
2022/08/06 06:53:01;;;;;;;16.55;12.35;;;;;;;;;;5052341;28;20032;-59
2022/08/06 06:55:32;;;;;;;17.20;12.00;;;;;;;;;;5052187;28;20017;-58
2022/08/06 06:58:08;;;;;;;15.82;11.98;;;;;;;;;;5042054;28;20030;-61
2022/08/06 07:00:34;;;;;;;17.10;12.20;;;;;;;;;;5032293;28;20025;-59
2022/08/06 07:03:01;;;;;;;16.95;12.05;;;;;;;;;;5032380;28;20068;-62
2022/08/06 07:05:28;;;;;;;18.20;12.25;;;;;;;;;;5031968;28;20029;-59
2022/08/06 07:07:55;;;;;;;18.40;12.57;;;;;;;;;;5031561;28;20030;-59
2022/08/06 07:10:23;;;;;;;15.43;11.65;;;;;;;;;;5031951;28;20026;-57
2022/08/06 07:12:49;;;;;;;15.20;12.05;;;;;;;;;;5031672;28;20033;-60
2022/08/06 07:15:17;;;;;;;16.58;12.13;;;;;;;;;;5042713;28;20017;-62
2022/08/06 07:17:43;;;;;;;16.20;11.60;;;;;;;;;;5051245;28;20037;-61
2022/08/06 07:20:10;;;;;;;15.45;11.80;;;;;;;;;;5052205;28;20028;-60
2022/08/06 07:22:38;;;;;;;15.07;11.80;;;;;;;;;;5052310;28;20107;-61
2022/08/06 07:25:06;;;;;;;15.20;11.30;;;;;;;;;;5052045;28;20029;-62
2022/08/06 07:27:37;;;;;;;14.95;11.70;;;;;;;;;;5051441;28;20036;-62
2022/08/06 07:30:05;;;;;;;18.83;12.02;;;;;;;;;;5052104;28;20060;-62
2022/08/06 07:32:32;;;;;;;15.15;12.32;;;;;;;;;;5051892;28;20485;-60
2022/08/06 07:34:58;;;;;;;15.43;12.07;;;;;;;;;;5052009;28;20029;-59
2022/08/06 07:37:25;;;;;;;16.70;12.07;;;;;;;;;;5051027;28;20029;-61
2022/08/06 07:39:53;;;;;;;16.67;12.30;;;;;;;;;;5051930;28;20120;-63
2022/08/06 07:42:20;;;;;;;16.23;12.35;;;;;;;;;;5037106;28;20490;-61
2022/08/06 07:44:48;;;;;;;16.50;12.50;;;;;;;;;;5031913;28;20030;-60
2022/08/06 07:47:19;;;;;;;15.50;12.10;;;;;;;;;;5030127;28;20119;-61
2022/08/06 07:49:46;;;;;;;16.95;12.32;;;;;;;;;;5032122;28;20478;-60
2022/08/06 07:52:13;;;;;;;15.55;12.68;;;;;;;;;;5032112;28;20029;-62
2022/08/06 07:54:40;;;;;;;15.65;12.20;;;;;;;;;;5030381;28;20036;-62
2022/08/06 07:57:06;;;;;;;15.10;12.30;;;;;;;;;;5031826;28;20060;-62
2022/08/06 07:59:32;;;;;;;18.13;12.98;;;;;;;;;;5033930;28;20057;-61
2022/08/06 08:02:00;;;;;;;16.20;12.85;;;;;;;;;;5034218;28;20029;-63
2022/08/06 08:07:12;;;;;;;15.55;12.27;;;;;;;;;;5032869;28;20041;-65
2022/08/06 08:09:39;;;;;;;15.85;12.18;;;;;;;;;;5034181;28;20030;-66
2022/08/06 08:12:06;;;;;;;15.30;11.90;;;;;;;;;;5034704;28;20023;-65
2022/08/06 08:14:32;;;;;;;15.63;11.57;;;;;;;;;;5034621;28;20052;-66
2022/08/06 08:16:58;;;;;;;15.40;12.30;;;;;;;;;;5034670;28;20098;-65
2022/08/06 08:19:30;;;;;;;16.42;12.18;;;;;;;;;;5033762;28;20025;-67
2022/08/06 08:21:58;;;;;;;15.30;12.07;;;;;;;;;;5033302;28;20040;-68
2022/08/06 08:24:25;;;;;;;15.40;12.07;;;;;;;;;;5022642;28;20067;-64
2022/08/06 08:26:51;;;;;;;17.83;13.77;;;;;;;;;;5023573;28;20034;-65
2022/08/06 08:29:17;;;;;;;16.08;12.10;;;;;;;;;;5013671;28;20057;-65
2022/08/06 08:31:43;;;;;;;15.05;11.80;;;;;;;;;;5013108;28;20022;-64
2022/08/06 08:34:11;;;;;;;15.50;11.95;;;;;;;;;;5014426;28;20018;-63
2022/08/06 08:36:37;;;;;;;19.77;12.73;;;;;;;;;;5014363;28;20040;-65
2022/08/06 08:39:03;;;;;;;17.13;13.00;;;;;;;;;;5012205;28;20057;-65
2022/08/06 08:41:34;;;;;;;16.83;13.60;;;;;;;;;;5014050;28;20029;-65
2022/08/06 08:44:05;;;;;;;15.57;12.70;;;;;;;;;;5032540;28;20022;-65
2022/08/06 08:46:33;;;;;;;16.63;12.35;;;;;;;;;;5033825;28;20462;-64
2022/08/06 08:49:02;;;;;;;15.38;12.35;;;;;;;;;;5031826;28;20195;-66
2022/08/06 08:51:28;;;;;;;15.45;12.27;;;;;;;;;;5033829;28;20058;-65
2022/08/06 08:53:55;;;;;;;16.40;12.93;;;;;;;;;;5033817;28;20025;-64
2022/08/06 08:56:22;;;;;;;15.90;12.25;;;;;;;;;;5032203;28;20018;-64
2022/08/06 08:58:48;;;;;;;17.27;12.60;;;;;;;;;;5033172;28;20025;-65
2022/08/06 09:01:16;;;;;;;14.98;12.30;;;;;;;;;;5032441;28;20099;-66
2022/08/06 09:03:43;;;;;;;16.10;12.65;;;;;;;;;;5033643;28;20029;-65
2022/08/06 09:06:09;;;;;;;16.67;12.75;;;;;;;;;;5033154;28;20452;-61
2022/08/06 09:08:36;;;;;;;16.60;12.98;;;;;;;;;;5032349;28;20017;-64
2022/08/06 09:11:03;;;;;;;17.48;12.65;;;;;;;;;;5032787;28;20030;-64
2022/08/06 09:13:29;;;;;;;15.93;12.35;;;;;;;;;;5031593;28;20029;-64
2022/08/06 09:15:56;;;;;;;16.35;12.77;;;;;;;;;;5033351;28;20505;-63
2022/08/06 09:18:23;;;;;;;15.80;13.43;;;;;;;;;;5030981;28;20029;-66
2022/08/06 09:20:49;;;;;;;16.45;12.90;;;;;;;;;;5033108;28;20041;-65
2022/08/06 09:23:16;;;;;;;17.00;12.93;;;;;;;;;;5031673;28;20022;-65
2022/08/06 09:25:42;;;;;;;15.65;13.23;;;;;;;;;;5032845;28;20029;-64
2022/08/06 09:28:11;;;;;;;15.20;12.55;;;;;;;;;;5031867;28;20033;-62
2022/08/06 09:30:38;;;;;;;15.18;12.63;;;;;;;;;;5033396;28;20111;-63
2022/08/06 09:33:10;;;;;;;15.85;12.77;;;;;;;;;;5032402;28;20413;-62
2022/08/06 09:35:36;;;;;;;15.77;12.95;;;;;;;;;;5032117;28;20083;-62
2022/08/06 09:38:04;;;;;;;16.48;13.15;;;;;;;;;;5031907;28;20060;-63
2022/08/06 09:40:30;;;;;;;15.73;12.70;;;;;;;;;;5034668;28;20025;-60
2022/08/06 09:42:56;;;;;;;15.77;12.40;;;;;;;;;;5033619;28;20282;-63
2022/08/06 09:45:23;;;;;;;16.27;12.73;;;;;;;;;;5031750;28;20079;-65
2022/08/06 09:48:00;;;;;;;15.60;11.98;;;;;;;;;;5031879;28;20053;-63
2022/08/06 09:50:40;;;;;;;15.15;12.10;;;;;;;;;;5031560;28;20028;-64
2022/08/06 09:53:06;;;;;;;17.27;13.40;;;;;;;;;;5032795;28;20033;-64
2022/08/06 09:55:33;;;;;;;16.05;12.50;;;;;;;;;;5031436;28;20081;-65
2022/08/06 09:57:59;;;;;;;15.68;13.00;;;;;;;;;;5032808;28;20492;-63
2022/08/06 10:00:29;;;;;;;17.00;13.20;;;;;;;;;;5032963;28;20458;-62
2022/08/06 10:02:56;;;;;;;16.25;12.85;;;;;;;;;;5032526;28;20485;-64
2022/08/06 10:05:23;;;;;;;15.63;12.95;;;;;;;;;;5032110;28;20048;-63
2022/08/06 10:08:02;;;;;;;17.15;12.75;;;;;;;;;;5031969;28;20036;-65
2022/08/06 10:10:48;;;;;;;17.15;12.77;;;;;;;;;;5012849;28;20033;-63
2022/08/06 10:13:26;;;;;;;15.77;13.18;;;;;;;;;;5012252;28;20107;-63
2022/08/06 10:15:53;;;;;;;16.42;13.10;;;;;;;;;;5018255;28;20032;-63
2022/08/06 10:18:37;;;;;;;16.40;13.20;;;;;;;;;;5031701;28;20025;-63
2022/08/06 10:21:07;;;;;;;16.48;13.40;;;;;;;;;;5031494;28;20083;-63
2022/08/06 10:23:34;;;;;;;15.88;13.10;;;;;;;;;;5032512;28;20104;-63
2022/08/06 10:26:04;;;;;;;15.90;12.75;;;;;;;;;;5032023;28;20477;-63
2022/08/06 10:28:32;;;;;;;15.90;13.10;;;;;;;;;;5031326;28;20163;-64
2022/08/06 10:30:58;;;;;;;18.90;12.63;;;;;;;;;;5032036;28;20032;-64
2022/08/06 10:33:25;;;;;;;15.88;12.68;;;;;;;;;;5031947;28;20029;-64
2022/08/06 10:35:58;;;;;;;15.85;12.45;;;;;;;;;;5031574;28;20431;-63
2022/08/06 10:38:26;;;;;;;15.48;13.00;;;;;;;;;;5029745;28;20125;-64
2022/08/06 10:40:53;;;;;;;17.75;13.00;;;;;;;;;;5031730;28;20021;-63
2022/08/06 10:43:19;;;;;;;15.30;12.55;;;;;;;;;;5031939;28;20029;-64
2022/08/06 10:45:46;;;;;;;16.85;13.15;;;;;;;;;;5031425;28;20039;-64
2022/08/06 10:48:12;;;;;;;15.77;12.75;;;;;;;;;;5029547;28;20397;-63
2022/08/06 10:50:38;;;;;;;15.30;12.60;;;;;;;;;;5031451;28;20017;-63
2022/08/06 10:53:05;;;;;;;15.30;12.60;;;;;;;;;;5031605;28;20017;-62
2022/08/06 10:55:31;;;;;;;15.82;13.13;;;;;;;;;;5030531;28;20022;-63
2022/08/06 10:57:59;;;;;;;15.70;13.40;;;;;;;;;;5030850;28;20120;-62
2022/08/06 11:00:25;;;;;;;15.70;13.27;;;;;;;;;;5031370;28;20112;-64
2022/08/06 11:03:10;;;;;;;16.77;13.80;;;;;;;;;;5031617;28;20030;-63
2022/08/06 11:05:37;;;;;;;17.52;14.18;;;;;;;;;;5031452;28;20042;-64
2022/08/06 11:08:09;;;;;;;15.60;12.90;;;;;;;;;;5030394;28;20064;-58
2022/08/06 11:10:54;;;;;;;15.70;13.05;;;;;;;;;;5030953;28;20026;-63
2022/08/06 11:13:39;;;;;;;15.52;12.90;;;;;;;;;;5030481;28;20088;-64
2022/08/06 11:16:05;;;;;;;15.90;12.88;;;;;;;;;;5028293;28;20028;-63
2022/08/06 11:18:31;;;;;;;15.65;12.90;;;;;;;;;;5029456;28;20045;-64
2022/08/06 11:21:00;;;;;;;16.60;12.95;;;;;;;;;;5029631;28;20028;-64
2022/08/06 11:23:31;;;;;;;15.85;12.80;;;;;;;;;;5029857;28;20025;-64
2022/08/06 11:26:01;;;;;;;16.67;12.60;;;;;;;;;;5029891;28;20030;-64
2022/08/06 11:28:33;;;;;;;15.48;12.80;;;;;;;;;;5027523;28;20021;-63
2022/08/06 11:31:00;;;;;;;16.17;12.50;;;;;;;;;;5030774;28;20057;-63
2022/08/06 11:33:32;;;;;;;16.50;12.90;;;;;;;;;;5034248;28;20029;-63
2022/08/06 11:36:00;;;;;;;16.20;13.20;;;;;;;;;;5035094;28;20543;-64
2022/08/06 11:38:46;;;;;;;15.48;13.30;;;;;;;;;;5032907;28;20071;-63
2022/08/06 11:41:17;;;;;;;18.33;13.40;;;;;;;;;;5033783;28;20032;-64
2022/08/06 11:43:47;;;;;;;16.13;13.48;;;;;;;;;;5034891;28;20036;-63
2022/08/06 11:46:22;;;;;;;16.52;13.95;;;;;;;;;;5034745;28;20438;-63
2022/08/06 11:49:03;;;;;;;15.45;13.13;;;;;;;;;;5034004;28;20478;-61
2022/08/06 11:51:47;;;;;;;16.02;13.65;;;;;;;;;;5034907;28;20029;-65
2022/08/06 11:54:13;;;;;;;15.65;13.50;;;;;;;;;;5033481;28;20018;-63
2022/08/06 11:56:58;;;;;;;16.23;13.23;;;;;;;;;;5034540;28;20547;-63
2022/08/06 11:59:24;;;;;;;16.02;13.57;;;;;;;;;;5033959;28;20033;-60
2022/08/06 12:01:50;;;;;;;16.45;13.40;;;;;;;;;;5033194;28;20061;-65
2022/08/06 12:04:35;;;;;;;16.67;14.40;;;;;;;;;;5034527;28;20025;-64
2022/08/06 12:07:13;;;;;;;15.48;12.82;;;;;;;;;;5034198;28;20033;-63
2022/08/06 12:09:39;;;;;;;;;;;;;;;;;;5034895;28;20374;-64
2022/08/06 12:12:24;;;;;;;16.88;12.90;;;;;;;;;;5033259;28;19905;-64
2022/08/06 12:14:50;;;;;;;16.60;12.90;;;;;;;;;;5034287;28;20021;-66
2022/08/06 12:17:20;;;;;;;16.60;12.88;;;;;;;;;;5033963;28;20108;-63
2022/08/06 12:19:46;;;;;;;16.30;13.32;;;;;;;;;;5034518;28;20426;-63
2022/08/06 12:22:14;;;;;;;16.42;13.43;;;;;;;;;;5034393;28;20028;-63
2022/08/06 12:24:42;;;;;;;20.48;13.77;;;;;;;;;;5033955;28;20397;-61
2022/08/06 12:27:08;;;;;;;;;;;;;;;;;;5034254;28;20048;-58
2022/08/06 12:29:35;;;;;;;16.70;13.18;;;;;;;;;;5033614;28;19905;-61
2022/08/06 12:32:01;;;;;;;16.08;13.32;;;;;;;;;;5034187;28;20030;-62
2022/08/06 12:34:29;;;;;;;16.95;13.50;;;;;;;;;;5032521;28;20540;-63
2022/08/06 12:36:56;;;;;;;16.15;13.88;;;;;;;;;;5033979;28;20032;-62
2022/08/06 12:40:23;;;;;;;16.08;13.57;;;;;;;;;;5033251;28;20033;-62
2022/08/06 12:42:22;;;;;;;16.52;13.55;;;;;;;;;;5033298;28;20025;-62
2022/08/06 12:44:48;;;;;;;15.80;13.43;;;;;;;;;;5028006;28;20039;-61
2022/08/06 12:47:14;;;;;;;18.50;13.15;;;;;;;;;;5032501;28;20501;-61
2022/08/06 12:49:40;;;;;;;16.42;13.50;;;;;;;;;;5033535;28;20033;-58
2022/08/06 12:52:13;;;;;;;19.42;17.33;;;;;;;;;;5033337;28;20025;-61
2022/08/06 12:54:39;;;;;;;16.20;13.57;;;;;;;;;;5033499;28;20096;-61
2022/08/06 12:57:05;;;;;;;17.05;13.20;;;;;;;;;;5033485;28;20029;-57
2022/08/06 12:59:31;;;;;;;15.98;13.35;;;;;;;;;;5018294;28;20034;-62
2022/08/06 13:01:58;;;;;;;16.10;13.50;;;;;;;;;;5013688;28;20026;-62
2022/08/06 13:04:24;;;;;;;15.82;13.00;;;;;;;;;;5013055;28;20393;-63
2022/08/06 13:06:51;;;;;;;17.02;14.10;;;;;;;;;;4677141;28;9999710;-64
2022/08/06 13:09:19;;;;;;;16.42;13.50;;;;;;;;;;5027373;28;20528;-57
2022/08/06 13:11:46;;;;;;;17.23;13.20;;;;;;;;;;5026916;28;20028;-62
2022/08/06 13:14:13;;;;;;;16.88;14.00;;;;;;;;;;5017180;28;20480;-64
2022/08/06 13:16:40;;;;;;;15.95;13.57;;;;;;;;;;5029005;28;20029;-59
2022/08/06 13:19:10;;;;;;;16.40;13.60;;;;;;;;;;5028098;28;20032;-62
2022/08/06 13:21:37;;;;;;;15.40;12.90;;;;;;;;;;5024240;28;20018;-63
2022/08/06 13:24:04;;;;;;;17.70;13.30;;;;;;;;;;5029259;28;20100;-62
2022/08/06 13:26:31;;;;;;;15.85;13.30;;;;;;;;;;5011509;28;20034;-60
2022/08/06 13:29:14;;;;;;;16.50;13.60;;;;;;;;;;5011872;28;20037;-62
2022/08/06 13:31:41;;;;;;;16.33;13.75;;;;;;;;;;5029617;28;20045;-62
2022/08/06 13:34:09;;;;;;;16.05;13.50;;;;;;;;;;5028130;28;20041;-63
2022/08/06 13:36:36;;;;;;;15.80;13.45;;;;;;;;;;5029462;28;20084;-64
2022/08/06 13:39:21;;;;;;;15.93;13.43;;;;;;;;;;5013400;28;20113;-63
2022/08/06 13:41:48;;;;;;;15.80;13.38;;;;;;;;;;5009727;28;20027;-63
2022/08/06 13:44:27;;;;;;;17.08;14.20;;;;;;;;;;5030411;28;20056;-56
2022/08/06 13:46:53;;;;;;;17.48;14.30;;;;;;;;;;5031538;28;20524;-59
2022/08/06 13:49:18;;;;;;;19.45;15.40;;;;;;;;;;5031753;28;20032;-62
2022/08/06 13:51:45;;;;;;;15.57;13.35;;;;;;;;;;5032428;28;20018;-62
2022/08/06 13:54:11;;;;;;;16.52;14.10;;;;;;;;;;5032192;28;20592;-62
2022/08/06 13:56:37;;;;;;;16.10;13.75;;;;;;;;;;5011586;28;20026;-62
2022/08/06 13:59:03;;;;;;;17.17;13.75;;;;;;;;;;5011811;28;20077;-63
2022/08/06 14:01:30;;;;;;;16.95;13.50;;;;;;;;;;5012573;28;20022;-64
2022/08/06 14:03:56;;;;;;;16.55;14.30;;;;;;;;;;5009491;28;20022;-64
2022/08/06 14:06:22;;;;;;;16.52;14.43;;;;;;;;;;5013395;28;20030;-64
2022/08/06 14:08:48;;;;;;;17.17;15.38;;;;;;;;;;5011501;28;20440;-63
2022/08/06 14:11:14;;;;;;;17.30;15.07;;;;;;;;;;5012394;28;20113;-64
2022/08/06 14:13:40;;;;;;;17.50;15.65;;;;;;;;;;5012572;28;20050;-64
2022/08/06 14:16:06;;;;;;;16.65;14.70;;;;;;;;;;5012192;28;20037;-63
2022/08/06 14:18:32;;;;;;;16.90;14.68;;;;;;;;;;5011585;28;20084;-64
2022/08/06 14:20:59;;;;;;;16.20;14.50;;;;;;;;;;5016225;28;20108;-64
2022/08/06 14:23:25;;;;;;;16.40;14.40;;;;;;;;;;5031857;28;20018;-63
2022/08/06 14:25:51;;;;;;;17.85;14.32;;;;;;;;;;5030429;28;20045;-64
2022/08/06 14:28:20;;;;;;;16.88;14.43;;;;;;;;;;5031051;28;20389;-64
2022/08/06 14:30:46;;;;;;;18.30;14.30;;;;;;;;;;5030667;28;20022;-64